createdAt,value
2023-05-13T00:01:27.377Z,9.40
2023-05-13T00:06:30.223Z,8.00
2023-05-13T00:11:33.109Z,7.70
2023-05-13T00:16:37.766Z,8.43
2023-05-13T00:21:41.156Z,7.00
2023-05-13T00:26:44.052Z,7.53
2023-05-13T00:31:48.299Z,7.47
2023-05-13T00:36:51.775Z,7.90
2023-05-13T00:41:54.575Z,7.90
2023-05-13T00:46:58.914Z,7.05
2023-05-13T00:52:02.014Z,8.50
2023-05-13T00:57:05.177Z,8.23
2023-05-13T01:02:14.751Z,8.10
2023-05-13T01:07:25.489Z,7.55
2023-05-13T01:12:32.362Z,6.90
2023-05-13T01:17:39.506Z,6.75
2023-05-13T01:22:43.640Z,6.65
2023-05-13T01:27:46.858Z,7.65
2023-05-13T01:32:53.010Z,7.35
2023-05-13T01:37:58.280Z,7.20
2023-05-13T01:43:01.668Z,8.93
2023-05-13T01:48:05.473Z,8.32
2023-05-13T01:53:18.892Z,8.65
2023-05-13T01:58:23.318Z,8.20
2023-05-13T02:03:26.512Z,8.88
2023-05-13T02:08:31.058Z,9.70
2023-05-13T02:13:33.945Z,9.33
2023-05-13T02:18:36.824Z,11.07
2023-05-13T02:23:40.977Z,9.83
2023-05-13T02:28:43.791Z,10.15
2023-05-13T02:33:49.921Z,10.20
2023-05-13T02:38:54.796Z,11.90
2023-05-13T02:43:57.710Z,12.05
2023-05-13T02:49:01.124Z,12.77
2023-05-13T02:54:08.336Z,12.87
2023-05-13T02:59:11.254Z,13.32
2023-05-13T03:04:14.565Z,14.17
2023-05-13T03:09:18.806Z,12.95
2023-05-13T03:14:23.047Z,13.38
2023-05-13T03:19:25.883Z,13.93
2023-05-13T03:24:30.180Z,13.82
2023-05-13T03:29:33.253Z,14.48
2023-05-13T03:34:37.843Z,15.48
2023-05-13T03:39:42.714Z,13.52
2023-05-13T03:44:45.927Z,15.32
2023-05-13T03:49:48.971Z,13.55
2023-05-13T03:54:53.780Z,15.67
2023-05-13T03:59:56.616Z,14.55
2023-05-13T04:04:59.511Z,16.17
2023-05-13T04:10:03.751Z,15.40
2023-05-13T04:15:07.475Z,15.40
2023-05-13T04:20:10.922Z,15.50
2023-05-13T04:25:15.240Z,15.45
2023-05-13T04:30:18.360Z,15.35
2023-05-13T04:35:22.696Z,14.85
2023-05-13T04:40:30.981Z,15.45
2023-05-13T04:45:38.611Z,14.35
2023-05-13T04:50:46.483Z,16.60
2023-05-13T04:55:52.481Z,15.60
2023-05-13T05:00:55.430Z,16.00
2023-05-13T05:05:58.485Z,15.97
2023-05-13T05:11:02.958Z,15.60
2023-05-13T05:16:08.740Z,14.95
2023-05-13T05:21:11.958Z,14.70
2023-05-13T05:26:16.930Z,14.90
2023-05-13T05:31:19.891Z,14.07
2023-05-13T05:36:22.844Z,13.20
2023-05-13T05:41:28.154Z,13.77
2023-05-13T05:46:31.500Z,12.07
2023-05-13T05:51:35.394Z,10.68
2023-05-13T05:56:41.331Z,9.98
2023-05-13T06:01:44.256Z,9.13
2023-05-13T06:06:47.132Z,8.70
2023-05-13T06:11:51.681Z,8.07
2023-05-13T06:16:55.882Z,8.02
2023-05-13T06:21:58.880Z,7.50
2023-05-13T06:27:03.105Z,7.03
2023-05-13T06:32:06.708Z,7.60
2023-05-13T06:37:09.568Z,6.80
2023-05-13T06:42:14.346Z,6.60
2023-05-13T06:47:23.715Z,5.97
2023-05-13T06:52:27.059Z,5.93
2023-05-13T06:57:41.947Z,5.30
2023-05-13T07:02:46.128Z,5.28
2023-05-13T07:07:53.472Z,4.75
2023-05-13T07:12:57.739Z,4.63
2023-05-13T07:18:00.732Z,4.83
2023-05-13T07:23:03.620Z,4.38
2023-05-13T07:28:08.187Z,4.15
2023-05-13T07:33:11.138Z,4.40
2023-05-13T07:38:14.180Z,4.40
2023-05-13T07:43:23.758Z,4.45
2023-05-13T07:48:28.191Z,3.73
2023-05-13T07:53:30.981Z,3.30
2023-05-13T07:58:35.093Z,3.78
2023-05-13T08:03:38.128Z,3.47
2023-05-13T08:08:41.124Z,3.67
2023-05-13T08:13:45.415Z,3.63
2023-05-13T08:18:48.642Z,2.93
2023-05-13T08:23:51.916Z,3.50
2023-05-13T08:28:57.246Z,3.60
2023-05-13T08:34:25.296Z,3.67
2023-05-13T08:39:28.149Z,3.92
2023-05-13T08:44:33.709Z,4.22
2023-05-13T08:49:36.484Z,4.53
2023-05-13T08:54:39.891Z,3.70
2023-05-13T08:59:44.052Z,4.28
2023-05-13T09:04:47.970Z,4.25
2023-05-13T09:09:51.300Z,3.58
2023-05-13T09:14:55.712Z,5.33
2023-05-13T09:19:58.593Z,3.83
2023-05-13T09:25:04.112Z,4.22
2023-05-13T09:30:09.599Z,3.78
2023-05-13T09:35:17.594Z,3.50
2023-05-13T09:40:20.843Z,3.88
2023-05-13T09:45:26.611Z,4.00
2023-05-13T09:50:29.571Z,3.75
2023-05-13T09:55:32.393Z,4.20
2023-05-13T10:00:38.994Z,3.93
2023-05-13T10:05:42.736Z,4.15
2023-05-13T10:10:46.629Z,4.88
2023-05-13T10:15:52.133Z,4.87
2023-05-13T10:20:56.041Z,4.20
2023-05-13T10:26:00.183Z,5.50
2023-05-13T10:31:04.409Z,5.10
2023-05-13T10:36:21.247Z,5.15
2023-05-13T10:41:41.629Z,4.97
2023-05-13T10:46:48.783Z,5.73
2023-05-13T10:51:52.360Z,5.15
2023-05-13T10:56:58.432Z,5.40
2023-05-13T11:02:04.557Z,6.10
2023-05-13T11:07:16.634Z,5.13
2023-05-13T11:12:19.516Z,5.50
2023-05-13T11:17:23.716Z,5.38
2023-05-13T11:22:27.666Z,5.47
2023-05-13T11:27:34.133Z,5.73
2023-05-13T11:32:56.660Z,5.90
2023-05-13T11:38:01.058Z,5.90
2023-05-13T11:43:04.938Z,6.78
2023-05-13T11:48:21.061Z,6.30
2023-05-13T11:53:24.020Z,7.30
2023-05-13T11:58:26.986Z,6.90
2023-05-13T12:03:31.258Z,6.25
2023-05-13T12:08:34.114Z,6.78
2023-05-13T12:13:37.196Z,6.83
2023-05-13T12:18:41.719Z,6.45
2023-05-13T12:23:44.728Z,6.60
2023-05-13T12:28:47.729Z,6.50
2023-05-13T12:33:52.062Z,6.83
2023-05-13T12:38:58.200Z,5.83
2023-05-13T12:44:03.895Z,5.88
2023-05-13T12:49:12.040Z,6.40
2023-05-13T12:54:14.865Z,6.00
2023-05-13T12:59:19.174Z,6.82
2023-05-13T13:04:23.462Z,6.88
2023-05-13T13:09:26.633Z,7.00
2023-05-13T13:14:29.768Z,7.70
2023-05-13T13:19:33.999Z,7.63
2023-05-13T13:24:36.992Z,7.70
2023-05-13T13:29:40.284Z,8.10
2023-05-13T13:34:44.471Z,7.22
2023-05-13T13:39:47.332Z,7.57
2023-05-13T13:44:50.226Z,7.73
2023-05-13T13:49:54.395Z,6.82
2023-05-13T13:54:57.269Z,7.30
2023-05-13T14:00:00.230Z,6.53
2023-05-13T14:05:04.788Z,7.82
2023-05-13T14:10:08.870Z,7.28
2023-05-13T14:15:12.673Z,7.33
2023-05-13T14:20:16.937Z,7.25
2023-05-13T14:25:19.726Z,7.80
2023-05-13T14:30:22.977Z,7.97
2023-05-13T14:35:27.486Z,6.68
2023-05-13T14:40:30.670Z,7.07
2023-05-13T14:45:33.663Z,7.13
2023-05-13T14:50:39.412Z,6.80
2023-05-13T14:55:44.264Z,6.87
2023-05-13T15:00:47.317Z,6.80
2023-05-13T15:05:51.801Z,6.65
2023-05-13T15:10:54.641Z,6.95
2023-05-13T15:15:57.544Z,7.38
2023-05-13T15:21:01.772Z,6.07
2023-05-13T15:26:04.759Z,6.67
2023-05-13T15:31:07.734Z,7.75
2023-05-13T15:36:11.935Z,6.82
2023-05-13T15:41:14.730Z,7.23
2023-05-13T15:46:17.644Z,6.68
2023-05-13T15:51:21.971Z,7.30
2023-05-13T15:56:25.725Z,7.65
2023-05-13T16:01:28.831Z,6.63
2023-05-13T16:06:35.264Z,8.43
2023-05-13T16:11:38.969Z,7.10
2023-05-13T16:16:42.077Z,6.40
2023-05-13T16:21:46.418Z,7.97
2023-05-13T16:26:49.371Z,6.75
2023-05-13T16:31:52.372Z,6.45
2023-05-13T16:36:59.104Z,5.77
2023-05-13T16:42:02.171Z,5.88
2023-05-13T16:47:08.592Z,6.17
2023-05-13T16:52:12.981Z,5.90
2023-05-13T16:57:16.199Z,5.97
2023-05-13T17:02:19.184Z,6.18
2023-05-13T17:07:23.452Z,6.55
2023-05-13T17:12:27.227Z,6.72
2023-05-13T17:17:30.368Z,6.93
2023-05-13T17:22:34.911Z,6.07
2023-05-13T17:27:37.777Z,6.97
2023-05-13T17:32:40.667Z,6.93
2023-05-13T17:37:44.922Z,6.18
2023-05-13T17:42:47.816Z,6.75
2023-05-13T17:47:50.706Z,6.50
2023-05-13T17:52:55.120Z,5.97
2023-05-13T17:57:59.819Z,7.70
2023-05-13T18:03:02.750Z,7.07
2023-05-13T18:08:07.136Z,6.93
2023-05-13T18:13:10.044Z,7.27
2023-05-13T18:18:13.520Z,7.57
2023-05-13T18:23:17.980Z,6.97
2023-05-13T18:28:20.947Z,8.33
2023-05-13T18:33:23.780Z,8.43
2023-05-13T18:38:28.002Z,7.82
2023-05-13T18:43:31.016Z,8.32
2023-05-13T18:48:33.906Z,8.15
2023-05-13T18:53:38.119Z,9.10
2023-05-13T18:58:41.080Z,7.87
2023-05-13T19:03:44.208Z,9.30
2023-05-13T19:08:48.537Z,9.07
2023-05-13T19:13:51.333Z,9.33
2023-05-13T19:18:54.412Z,10.85
2023-05-13T19:23:59.557Z,10.23
2023-05-13T19:29:02.625Z,10.13
2023-05-13T19:34:07.553Z,9.95
2023-05-13T19:39:11.969Z,9.50
2023-05-13T19:44:14.859Z,9.98
2023-05-13T19:49:17.744Z,10.35
2023-05-13T19:54:22.205Z,10.32
2023-05-13T19:59:25.226Z,11.05
2023-05-13T20:04:28.649Z,12.35
2023-05-13T20:09:32.896Z,11.47
2023-05-13T20:14:45.881Z,12.82
2023-05-13T20:19:49.816Z,11.55
2023-05-13T20:24:54.437Z,11.90
2023-05-13T20:29:57.282Z,12.13
2023-05-13T20:35:00.159Z,11.60
2023-05-13T20:40:05.309Z,12.15
2023-05-13T20:45:09.247Z,12.20
2023-05-13T20:50:13.038Z,12.38
2023-05-13T20:55:17.818Z,14.03
2023-05-13T21:00:21.421Z,13.65
2023-05-13T21:05:24.560Z,13.15
2023-05-13T21:10:29.019Z,14.30
2023-05-13T21:15:31.900Z,14.48
2023-05-13T21:20:34.791Z,12.10
2023-05-13T21:25:39.037Z,12.57
2023-05-13T21:30:42.878Z,11.90
2023-05-13T21:35:45.615Z,11.02
2023-05-13T21:40:49.940Z,11.25
2023-05-13T21:45:52.771Z,9.70
2023-05-13T21:50:55.653Z,11.35
2023-05-13T21:56:00.218Z,11.18
2023-05-13T22:01:03.122Z,11.17
2023-05-13T22:06:06.153Z,9.80
2023-05-13T22:11:11.311Z,10.23
2023-05-13T22:16:14.511Z,10.68
2023-05-13T22:21:17.524Z,11.10
2023-05-13T22:26:21.925Z,11.50
2023-05-13T22:31:25.684Z,11.52
2023-05-13T22:36:28.614Z,11.38
2023-05-13T22:41:32.841Z,11.10
2023-05-13T22:46:35.812Z,11.20
2023-05-13T22:51:38.720Z,11.93
2023-05-13T22:56:42.923Z,11.20
2023-05-13T23:01:45.769Z,11.83
2023-05-13T23:06:48.649Z,10.80
2023-05-13T23:11:52.824Z,11.30
2023-05-13T23:16:55.591Z,10.77
2023-05-13T23:21:58.524Z,10.50
2023-05-13T23:27:02.757Z,11.27
2023-05-13T23:32:07.170Z,10.38
2023-05-13T23:37:10.145Z,10.77
2023-05-13T23:42:14.424Z,11.20
2023-05-13T23:47:17.168Z,12.20
2023-05-13T23:52:19.969Z,11.00
2023-05-13T23:57:24.256Z,11.93
